Blaine, Maine
Current Conditions -  °F | °C
As of 7:15 AM on Monday 24 Nov 2014 (Local Time) from KPQI Reporting Station
Overcast Overcast  
Wind Chill: 30°   Ceiling: 10000
Heat Index: 37°   Visibility: 10mi
Dew Point: 34°   Wind: 12mph
Humidity: 87%   Direction: 160°SSE
Pressure: 29.97"   Gusts: NA
Location:  46.5°N, 67.87°W
Report Text: KPQI 241215Z AUTO 16010KT 10SM OVC100 03/01 A2997 RMK AO1
Loading
Personal Weather Stations






























Interactive Weather Map New forecast layout! Learn more

10-Day Weather Forecast

Advertisements
Track Severe Weather on mobile